sensor_id;sensor_type;location;lat;lon;timestamp;P1;durP1;ratioP1;P2;durP2;ratioP2
83410;SDS011;73340;53.132;8.174;2023-11-19T00:00:38;28.10;;;12.17;;
83410;SDS011;73340;53.132;8.174;2023-11-19T00:03:03;29.33;;;12.83;;
83410;SDS011;73340;53.132;8.174;2023-11-19T00:05:28;28.77;;;12.63;;
83410;SDS011;73340;53.132;8.174;2023-11-19T00:07:54;27.03;;;11.97;;
83410;SDS011;73340;53.132;8.174;2023-11-19T00:10:19;29.73;;;12.77;;
83410;SDS011;73340;53.132;8.174;2023-11-19T00:12:45;33.53;;;13.52;;
83410;SDS011;73340;53.132;8.174;2023-11-19T00:15:11;28.50;;;12.73;;
83410;SDS011;73340;53.132;8.174;2023-11-19T00:17:40;33.17;;;13.70;;
83410;SDS011;73340;53.132;8.174;2023-11-19T00:20:06;31.02;;;14.07;;
83410;SDS011;73340;53.132;8.174;2023-11-19T00:22:31;30.98;;;12.95;;
83410;SDS011;73340;53.132;8.174;2023-11-19T00:24:56;29.73;;;13.00;;
83410;SDS011;73340;53.132;8.174;2023-11-19T00:27:21;40.28;;;17.45;;
83410;SDS011;73340;53.132;8.174;2023-11-19T00:29:47;35.13;;;16.00;;
83410;SDS011;73340;53.132;8.174;2023-11-19T00:32:12;30.10;;;13.25;;
83410;SDS011;73340;53.132;8.174;2023-11-19T00:34:37;27.48;;;12.13;;
83410;SDS011;73340;53.132;8.174;2023-11-19T00:37:03;28.30;;;12.33;;
83410;SDS011;73340;53.132;8.174;2023-11-19T00:39:29;26.15;;;11.15;;
83410;SDS011;73340;53.132;8.174;2023-11-19T00:41:54;27.63;;;11.53;;
83410;SDS011;73340;53.132;8.174;2023-11-19T00:44:19;29.30;;;12.17;;
83410;SDS011;73340;53.132;8.174;2023-11-19T00:46:44;29.70;;;12.85;;
83410;SDS011;73340;53.132;8.174;2023-11-19T00:49:10;29.57;;;13.07;;
83410;SDS011;73340;53.132;8.174;2023-11-19T00:51:36;27.33;;;11.98;;
83410;SDS011;73340;53.132;8.174;2023-11-19T00:54:01;29.03;;;13.17;;
83410;SDS011;73340;53.132;8.174;2023-11-19T00:56:27;30.58;;;13.10;;
83410;SDS011;73340;53.132;8.174;2023-11-19T00:58:53;27.08;;;12.40;;
83410;SDS011;73340;53.132;8.174;2023-11-19T01:01:18;28.73;;;13.00;;
83410;SDS011;73340;53.132;8.174;2023-11-19T01:03:44;25.73;;;11.50;;
83410;SDS011;73340;53.132;8.174;2023-11-19T01:06:09;31.37;;;12.30;;
83410;SDS011;73340;53.132;8.174;2023-11-19T01:08:34;27.93;;;11.87;;
83410;SDS011;73340;53.132;8.174;2023-11-19T01:11:01;29.58;;;12.55;;
83410;SDS011;73340;53.132;8.174;2023-11-19T01:13:26;28.20;;;11.02;;
83410;SDS011;73340;53.132;8.174;2023-11-19T01:15:51;21.10;;;10.03;;
83410;SDS011;73340;53.132;8.174;2023-11-19T01:18:16;36.87;;;18.13;;
83410;SDS011;73340;53.132;8.174;2023-11-19T01:20:41;30.00;;;12.83;;
83410;SDS011;73340;53.132;8.174;2023-11-19T01:23:07;25.10;;;10.53;;
83410;SDS011;73340;53.132;8.174;2023-11-19T01:25:32;26.98;;;10.93;;
83410;SDS011;73340;53.132;8.174;2023-11-19T01:27:59;27.90;;;11.30;;
83410;SDS011;73340;53.132;8.174;2023-11-19T01:30:24;27.17;;;11.03;;
83410;SDS011;73340;53.132;8.174;2023-11-19T01:32:49;26.67;;;11.55;;
83410;SDS011;73340;53.132;8.174;2023-11-19T01:35:15;27.70;;;11.37;;
83410;SDS011;73340;53.132;8.174;2023-11-19T01:37:40;26.47;;;10.37;;
83410;SDS011;73340;53.132;8.174;2023-11-19T01:40:05;34.57;;;13.03;;
83410;SDS011;73340;53.132;8.174;2023-11-19T01:42:36;32.75;;;12.48;;
83410;SDS011;73340;53.132;8.174;2023-11-19T01:45:02;28.27;;;11.35;;
83410;SDS011;73340;53.132;8.174;2023-11-19T01:47:28;24.85;;;10.10;;
83410;SDS011;73340;53.132;8.174;2023-11-19T01:49:54;29.35;;;11.63;;
83410;SDS011;73340;53.132;8.174;2023-11-19T01:52:19;28.05;;;11.45;;
83410;SDS011;73340;53.132;8.174;2023-11-19T01:54:45;23.42;;;10.48;;
83410;SDS011;73340;53.132;8.174;2023-11-19T01:57:10;24.02;;;10.10;;
83410;SDS011;73340;53.132;8.174;2023-11-19T01:59:35;24.65;;;11.27;;
83410;SDS011;73340;53.132;8.174;2023-11-19T02:02:01;27.43;;;11.00;;
83410;SDS011;73340;53.132;8.174;2023-11-19T02:04:26;22.90;;;9.67;;
83410;SDS011;73340;53.132;8.174;2023-11-19T02:06:52;25.05;;;9.60;;
83410;SDS011;73340;53.132;8.174;2023-11-19T02:09:19;24.50;;;10.93;;
83410;SDS011;73340;53.132;8.174;2023-11-19T02:11:44;24.00;;;9.87;;
83410;SDS011;73340;53.132;8.174;2023-11-19T02:14:09;28.08;;;11.40;;
83410;SDS011;73340;53.132;8.174;2023-11-19T02:16:36;29.48;;;10.38;;
83410;SDS011;73340;53.132;8.174;2023-11-19T02:19:01;33.43;;;12.00;;
83410;SDS011;73340;53.132;8.174;2023-11-19T02:21:26;31.33;;;11.83;;
83410;SDS011;73340;53.132;8.174;2023-11-19T02:23:51;35.10;;;13.10;;
83410;SDS011;73340;53.132;8.174;2023-11-19T02:26:39;27.85;;;10.73;;
83410;SDS011;73340;53.132;8.174;2023-11-19T02:29:03;30.67;;;11.90;;
83410;SDS011;73340;53.132;8.174;2023-11-19T02:31:28;29.00;;;12.73;;
83410;SDS011;73340;53.132;8.174;2023-11-19T02:33:54;45.30;;;18.40;;
83410;SDS011;73340;53.132;8.174;2023-11-19T02:36:20;35.17;;;14.68;;
83410;SDS011;73340;53.132;8.174;2023-11-19T02:38:46;32.95;;;12.65;;
83410;SDS011;73340;53.132;8.174;2023-11-19T02:41:11;35.43;;;14.23;;
83410;SDS011;73340;53.132;8.174;2023-11-19T02:43:37;30.73;;;12.03;;
83410;SDS011;73340;53.132;8.174;2023-11-19T02:46:03;38.70;;;14.30;;
83410;SDS011;73340;53.132;8.174;2023-11-19T02:48:31;33.70;;;12.95;;
83410;SDS011;73340;53.132;8.174;2023-11-19T02:50:56;33.03;;;13.30;;
83410;SDS011;73340;53.132;8.174;2023-11-19T02:53:23;28.58;;;11.07;;
83410;SDS011;73340;53.132;8.174;2023-11-19T02:55:49;30.63;;;11.63;;
83410;SDS011;73340;53.132;8.174;2023-11-19T02:58:15;26.63;;;11.35;;
83410;SDS011;73340;53.132;8.174;2023-11-19T03:00:49;31.65;;;12.55;;
83410;SDS011;73340;53.132;8.174;2023-11-19T03:03:21;30.05;;;12.00;;
83410;SDS011;73340;53.132;8.174;2023-11-19T03:05:47;29.35;;;11.25;;
83410;SDS011;73340;53.132;8.174;2023-11-19T03:08:14;32.35;;;13.07;;
83410;SDS011;73340;53.132;8.174;2023-11-19T03:10:39;37.33;;;12.35;;
83410;SDS011;73340;53.132;8.174;2023-11-19T03:13:04;31.33;;;11.17;;
83410;SDS011;73340;53.132;8.174;2023-11-19T03:15:29;31.87;;;12.60;;
83410;SDS011;73340;53.132;8.174;2023-11-19T03:17:54;37.37;;;13.23;;
83410;SDS011;73340;53.132;8.174;2023-11-19T03:20:20;34.92;;;12.60;;
83410;SDS011;73340;53.132;8.174;2023-11-19T03:22:45;35.63;;;13.15;;
83410;SDS011;73340;53.132;8.174;2023-11-19T03:25:11;39.28;;;18.02;;
83410;SDS011;73340;53.132;8.174;2023-11-19T03:27:37;48.00;;;18.70;;
83410;SDS011;73340;53.132;8.174;2023-11-19T03:30:03;29.73;;;11.18;;
83410;SDS011;73340;53.132;8.174;2023-11-19T03:32:30;30.02;;;11.43;;
83410;SDS011;73340;53.132;8.174;2023-11-19T03:34:55;25.92;;;10.57;;
83410;SDS011;73340;53.132;8.174;2023-11-19T03:37:20;29.13;;;11.10;;
83410;SDS011;73340;53.132;8.174;2023-11-19T03:39:45;27.60;;;9.67;;
83410;SDS011;73340;53.132;8.174;2023-11-19T03:42:11;32.00;;;11.60;;
83410;SDS011;73340;53.132;8.174;2023-11-19T03:44:38;31.27;;;10.68;;
83410;SDS011;73340;53.132;8.174;2023-11-19T03:47:03;36.17;;;10.67;;
83410;SDS011;73340;53.132;8.174;2023-11-19T03:49:28;32.55;;;11.30;;
83410;SDS011;73340;53.132;8.174;2023-11-19T03:51:54;32.60;;;11.00;;
83410;SDS011;73340;53.132;8.174;2023-11-19T03:54:19;31.10;;;10.67;;
83410;SDS011;73340;53.132;8.174;2023-11-19T03:56:45;34.10;;;11.88;;
83410;SDS011;73340;53.132;8.174;2023-11-19T03:59:10;26.50;;;10.97;;
83410;SDS011;73340;53.132;8.174;2023-11-19T04:01:35;36.40;;;10.77;;
83410;SDS011;73340;53.132;8.174;2023-11-19T04:04:02;32.95;;;9.68;;
83410;SDS011;73340;53.132;8.174;2023-11-19T04:06:27;25.00;;;9.75;;
83410;SDS011;73340;53.132;8.174;2023-11-19T04:08:52;27.20;;;10.27;;
83410;SDS011;73340;53.132;8.174;2023-11-19T04:11:18;29.53;;;10.53;;
83410;SDS011;73340;53.132;8.174;2023-11-19T04:13:43;31.00;;;8.67;;
83410;SDS011;73340;53.132;8.174;2023-11-19T04:16:09;25.30;;;9.10;;
83410;SDS011;73340;53.132;8.174;2023-11-19T04:18:34;28.00;;;9.03;;
83410;SDS011;73340;53.132;8.174;2023-11-19T04:20:59;27.93;;;8.10;;
83410;SDS011;73340;53.132;8.174;2023-11-19T04:23:24;27.77;;;8.43;;
83410;SDS011;73340;53.132;8.174;2023-11-19T04:25:50;23.98;;;7.57;;
83410;SDS011;73340;53.132;8.174;2023-11-19T04:28:15;29.63;;;7.63;;
83410;SDS011;73340;53.132;8.174;2023-11-19T04:30:40;25.10;;;8.33;;
83410;SDS011;73340;53.132;8.174;2023-11-19T04:33:06;33.50;;;8.97;;
83410;SDS011;73340;53.132;8.174;2023-11-19T04:35:31;25.70;;;8.30;;
83410;SDS011;73340;53.132;8.174;2023-11-19T04:37:56;28.30;;;8.38;;
83410;SDS011;73340;53.132;8.174;2023-11-19T04:40:22;26.15;;;7.25;;
83410;SDS011;73340;53.132;8.174;2023-11-19T04:42:47;27.25;;;6.93;;
83410;SDS011;73340;53.132;8.174;2023-11-19T04:45:13;24.70;;;8.23;;
83410;SDS011;73340;53.132;8.174;2023-11-19T04:47:38;22.30;;;7.83;;
83410;SDS011;73340;53.132;8.174;2023-11-19T04:50:04;26.45;;;7.40;;
83410;SDS011;73340;53.132;8.174;2023-11-19T04:52:29;29.90;;;7.38;;
83410;SDS011;73340;53.132;8.174;2023-11-19T04:54:54;20.13;;;5.90;;
83410;SDS011;73340;53.132;8.174;2023-11-19T04:57:19;24.80;;;6.70;;
83410;SDS011;73340;53.132;8.174;2023-11-19T04:59:44;26.57;;;6.60;;
83410;SDS011;73340;53.132;8.174;2023-11-19T05:02:10;27.60;;;6.93;;
83410;SDS011;73340;53.132;8.174;2023-11-19T05:04:35;25.13;;;9.57;;
83410;SDS011;73340;53.132;8.174;2023-11-19T05:07:01;35.85;;;12.48;;
83410;SDS011;73340;53.132;8.174;2023-11-19T05:09:26;23.70;;;5.57;;
83410;SDS011;73340;53.132;8.174;2023-11-19T05:11:51;25.27;;;6.30;;
83410;SDS011;73340;53.132;8.174;2023-11-19T05:14:16;18.10;;;5.63;;
83410;SDS011;73340;53.132;8.174;2023-11-19T05:16:43;21.90;;;6.22;;
83410;SDS011;73340;53.132;8.174;2023-11-19T05:19:08;22.27;;;5.60;;
83410;SDS011;73340;53.132;8.174;2023-11-19T05:21:34;20.97;;;5.50;;
83410;SDS011;73340;53.132;8.174;2023-11-19T05:23:59;22.35;;;6.28;;
83410;SDS011;73340;53.132;8.174;2023-11-19T05:26:24;24.85;;;4.47;;
83410;SDS011;73340;53.132;8.174;2023-11-19T05:28:50;21.70;;;4.70;;
83410;SDS011;73340;53.132;8.174;2023-11-19T05:31:16;23.55;;;5.80;;
83410;SDS011;73340;53.132;8.174;2023-11-19T05:33:41;13.90;;;4.15;;
83410;SDS011;73340;53.132;8.174;2023-11-19T05:36:06;27.60;;;4.60;;
83410;SDS011;73340;53.132;8.174;2023-11-19T05:38:33;13.95;;;3.75;;
83410;SDS011;73340;53.132;8.174;2023-11-19T05:40:58;19.30;;;6.23;;
83410;SDS011;73340;53.132;8.174;2023-11-19T05:43:23;24.70;;;5.03;;
83410;SDS011;73340;53.132;8.174;2023-11-19T05:45:48;17.57;;;5.00;;
83410;SDS011;73340;53.132;8.174;2023-11-19T05:48:13;24.00;;;4.87;;
83410;SDS011;73340;53.132;8.174;2023-11-19T05:50:39;28.87;;;5.60;;
83410;SDS011;73340;53.132;8.174;2023-11-19T05:53:04;27.75;;;5.63;;
83410;SDS011;73340;53.132;8.174;2023-11-19T05:55:35;18.70;;;4.63;;
83410;SDS011;73340;53.132;8.174;2023-11-19T05:58:01;24.92;;;5.05;;
83410;SDS011;73340;53.132;8.174;2023-11-19T06:00:26;25.35;;;4.90;;
83410;SDS011;73340;53.132;8.174;2023-11-19T06:02:51;23.23;;;4.63;;
83410;SDS011;73340;53.132;8.174;2023-11-19T06:05:16;25.27;;;5.27;;
83410;SDS011;73340;53.132;8.174;2023-11-19T06:07:42;22.20;;;7.03;;
83410;SDS011;73340;53.132;8.174;2023-11-19T06:10:07;41.43;;;9.27;;
83410;SDS011;73340;53.132;8.174;2023-11-19T06:12:34;27.90;;;5.70;;
83410;SDS011;73340;53.132;8.174;2023-11-19T06:15:02;28.40;;;4.97;;
83410;SDS011;73340;53.132;8.174;2023-11-19T06:17:28;25.80;;;5.07;;
83410;SDS011;73340;53.132;8.174;2023-11-19T06:19:53;23.37;;;4.33;;
83410;SDS011;73340;53.132;8.174;2023-11-19T06:22:18;23.83;;;4.80;;
83410;SDS011;73340;53.132;8.174;2023-11-19T06:24:43;25.90;;;4.70;;
83410;SDS011;73340;53.132;8.174;2023-11-19T06:27:08;24.33;;;4.40;;
83410;SDS011;73340;53.132;8.174;2023-11-19T06:29:34;24.63;;;4.93;;
83410;SDS011;73340;53.132;8.174;2023-11-19T06:31:59;23.00;;;4.30;;
83410;SDS011;73340;53.132;8.174;2023-11-19T06:34:25;23.83;;;4.03;;
83410;SDS011;73340;53.132;8.174;2023-11-19T06:36:50;27.57;;;4.80;;
83410;SDS011;73340;53.132;8.174;2023-11-19T06:39:15;24.60;;;4.63;;
83410;SDS011;73340;53.132;8.174;2023-11-19T06:41:46;23.17;;;5.33;;
83410;SDS011;73340;53.132;8.174;2023-11-19T06:44:12;30.17;;;4.82;;
83410;SDS011;73340;53.132;8.174;2023-11-19T06:46:38;23.55;;;5.30;;
83410;SDS011;73340;53.132;8.174;2023-11-19T06:49:03;24.83;;;5.20;;
83410;SDS011;73340;53.132;8.174;2023-11-19T06:51:28;29.90;;;5.10;;
83410;SDS011;73340;53.132;8.174;2023-11-19T06:53:54;35.88;;;5.32;;
83410;SDS011;73340;53.132;8.174;2023-11-19T06:56:20;27.67;;;5.57;;
83410;SDS011;73340;53.132;8.174;2023-11-19T06:58:46;32.42;;;4.82;;
83410;SDS011;73340;53.132;8.174;2023-11-19T07:01:12;30.25;;;6.40;;
83410;SDS011;73340;53.132;8.174;2023-11-19T07:03:38;31.10;;;5.97;;
83410;SDS011;73340;53.132;8.174;2023-11-19T07:06:03;23.63;;;5.90;;
83410;SDS011;73340;53.132;8.174;2023-11-19T07:08:28;24.45;;;4.10;;
83410;SDS011;73340;53.132;8.174;2023-11-19T07:10:54;27.90;;;4.00;;
83410;SDS011;73340;53.132;8.174;2023-11-19T07:13:19;28.33;;;4.63;;
83410;SDS011;73340;53.132;8.174;2023-11-19T07:15:44;25.97;;;4.20;;
83410;SDS011;73340;53.132;8.174;2023-11-19T07:18:09;33.63;;;6.50;;
83410;SDS011;73340;53.132;8.174;2023-11-19T07:20:36;31.38;;;5.40;;
83410;SDS011;73340;53.132;8.174;2023-11-19T07:23:02;24.92;;;4.38;;
83410;SDS011;73340;53.132;8.174;2023-11-19T07:25:28;24.20;;;4.73;;
83410;SDS011;73340;53.132;8.174;2023-11-19T07:27:53;24.07;;;4.83;;
83410;SDS011;73340;53.132;8.174;2023-11-19T07:30:18;22.93;;;4.07;;
83410;SDS011;73340;53.132;8.174;2023-11-19T07:32:43;23.50;;;4.60;;
83410;SDS011;73340;53.132;8.174;2023-11-19T07:35:08;23.77;;;3.53;;
83410;SDS011;73340;53.132;8.174;2023-11-19T07:37:34;29.65;;;4.03;;
83410;SDS011;73340;53.132;8.174;2023-11-19T07:39:59;26.63;;;5.77;;
83410;SDS011;73340;53.132;8.174;2023-11-19T07:42:24;31.80;;;7.67;;
83410;SDS011;73340;53.132;8.174;2023-11-19T07:44:50;22.08;;;4.05;;
83410;SDS011;73340;53.132;8.174;2023-11-19T07:47:15;28.57;;;4.73;;
83410;SDS011;73340;53.132;8.174;2023-11-19T07:49:40;19.77;;;5.03;;
83410;SDS011;73340;53.132;8.174;2023-11-19T07:52:05;23.07;;;4.83;;
83410;SDS011;73340;53.132;8.174;2023-11-19T07:54:30;28.20;;;4.70;;
83410;SDS011;73340;53.132;8.174;2023-11-19T07:56:56;26.83;;;4.70;;
83410;SDS011;73340;53.132;8.174;2023-11-19T07:59:21;27.17;;;4.40;;
83410;SDS011;73340;53.132;8.174;2023-11-19T08:01:46;23.43;;;3.97;;
83410;SDS011;73340;53.132;8.174;2023-11-19T08:04:11;22.60;;;3.67;;
83410;SDS011;73340;53.132;8.174;2023-11-19T08:06:37;23.10;;;3.90;;
83410;SDS011;73340;53.132;8.174;2023-11-19T08:09:02;29.63;;;5.00;;
83410;SDS011;73340;53.132;8.174;2023-11-19T08:11:27;19.83;;;3.90;;
83410;SDS011;73340;53.132;8.174;2023-11-19T08:13:52;25.77;;;4.23;;
83410;SDS011;73340;53.132;8.174;2023-11-19T08:16:17;24.70;;;4.23;;
83410;SDS011;73340;53.132;8.174;2023-11-19T08:18:43;26.13;;;4.90;;
83410;SDS011;73340;53.132;8.174;2023-11-19T08:21:08;23.15;;;4.28;;
83410;SDS011;73340;53.132;8.174;2023-11-19T08:23:34;19.88;;;4.13;;
83410;SDS011;73340;53.132;8.174;2023-11-19T08:25:59;22.47;;;4.10;;
83410;SDS011;73340;53.132;8.174;2023-11-19T08:28:25;20.30;;;3.80;;
83410;SDS011;73340;53.132;8.174;2023-11-19T08:30:50;24.40;;;4.17;;
83410;SDS011;73340;53.132;8.174;2023-11-19T08:33:15;28.27;;;5.33;;
83410;SDS011;73340;53.132;8.174;2023-11-19T08:35:40;24.13;;;5.13;;
83410;SDS011;73340;53.132;8.174;2023-11-19T08:38:06;29.97;;;4.80;;
83410;SDS011;73340;53.132;8.174;2023-11-19T08:40:31;32.70;;;6.05;;
83410;SDS011;73340;53.132;8.174;2023-11-19T08:42:57;30.53;;;6.70;;
83410;SDS011;73340;53.132;8.174;2023-11-19T08:45:22;27.10;;;3.70;;
83410;SDS011;73340;53.132;8.174;2023-11-19T08:47:47;26.27;;;4.40;;
83410;SDS011;73340;53.132;8.174;2023-11-19T08:50:12;25.77;;;4.20;;
83410;SDS011;73340;53.132;8.174;2023-11-19T08:52:38;24.50;;;3.63;;
83410;SDS011;73340;53.132;8.174;2023-11-19T08:55:03;29.30;;;5.57;;
83410;SDS011;73340;53.132;8.174;2023-11-19T08:57:30;24.08;;;4.68;;
83410;SDS011;73340;53.132;8.174;2023-11-19T08:59:55;25.13;;;3.80;;
83410;SDS011;73340;53.132;8.174;2023-11-19T09:02:20;27.47;;;3.87;;
83410;SDS011;73340;53.132;8.174;2023-11-19T09:04:46;25.57;;;5.40;;
83410;SDS011;73340;53.132;8.174;2023-11-19T09:07:11;27.27;;;4.03;;
83410;SDS011;73340;53.132;8.174;2023-11-19T09:09:36;26.40;;;3.87;;
83410;SDS011;73340;53.132;8.174;2023-11-19T09:12:02;21.40;;;4.00;;
83410;SDS011;73340;53.132;8.174;2023-11-19T09:14:28;25.20;;;3.97;;
83410;SDS011;73340;53.132;8.174;2023-11-19T09:16:53;32.53;;;4.53;;
83410;SDS011;73340;53.132;8.174;2023-11-19T09:19:18;32.73;;;5.33;;
83410;SDS011;73340;53.132;8.174;2023-11-19T09:21:43;29.10;;;7.20;;
83410;SDS011;73340;53.132;8.174;2023-11-19T09:24:08;21.67;;;4.20;;
83410;SDS011;73340;53.132;8.174;2023-11-19T09:26:34;24.90;;;4.23;;
83410;SDS011;73340;53.132;8.174;2023-11-19T09:29:01;22.95;;;4.07;;
83410;SDS011;73340;53.132;8.174;2023-11-19T09:31:26;21.37;;;3.63;;
83410;SDS011;73340;53.132;8.174;2023-11-19T09:33:51;23.67;;;5.20;;
83410;SDS011;73340;53.132;8.174;2023-11-19T09:36:16;27.73;;;6.10;;
83410;SDS011;73340;53.132;8.174;2023-11-19T09:38:45;28.90;;;4.43;;
83410;SDS011;73340;53.132;8.174;2023-11-19T09:41:10;25.67;;;4.93;;
83410;SDS011;73340;53.132;8.174;2023-11-19T09:43:38;21.13;;;4.03;;
83410;SDS011;73340;53.132;8.174;2023-11-19T09:46:04;35.10;;;5.03;;
83410;SDS011;73340;53.132;8.174;2023-11-19T09:48:32;30.65;;;4.60;;
83410;SDS011;73340;53.132;8.174;2023-11-19T09:50:58;28.83;;;4.68;;
83410;SDS011;73340;53.132;8.174;2023-11-19T09:53:24;31.48;;;6.18;;
83410;SDS011;73340;53.132;8.174;2023-11-19T09:55:49;22.17;;;4.50;;
83410;SDS011;73340;53.132;8.174;2023-11-19T09:58:15;29.13;;;5.47;;
83410;SDS011;73340;53.132;8.174;2023-11-19T10:00:40;28.50;;;4.83;;
83410;SDS011;73340;53.132;8.174;2023-11-19T10:03:06;27.40;;;4.78;;
83410;SDS011;73340;53.132;8.174;2023-11-19T10:05:32;28.27;;;5.60;;
83410;SDS011;73340;53.132;8.174;2023-11-19T10:07:57;27.67;;;4.95;;
83410;SDS011;73340;53.132;8.174;2023-11-19T10:10:23;27.30;;;4.30;;
83410;SDS011;73340;53.132;8.174;2023-11-19T10:12:50;27.77;;;5.35;;
83410;SDS011;73340;53.132;8.174;2023-11-19T10:15:24;39.80;;;10.57;;
83410;SDS011;73340;53.132;8.174;2023-11-19T10:17:51;24.70;;;6.85;;
83410;SDS011;73340;53.132;8.174;2023-11-19T10:20:17;32.88;;;4.40;;
83410;SDS011;73340;53.132;8.174;2023-11-19T10:22:42;33.53;;;4.50;;
83410;SDS011;73340;53.132;8.174;2023-11-19T10:25:23;30.90;;;4.87;;
83410;SDS011;73340;53.132;8.174;2023-11-19T10:27:49;23.40;;;4.78;;
83410;SDS011;73340;53.132;8.174;2023-11-19T10:30:17;25.75;;;4.68;;
83410;SDS011;73340;53.132;8.174;2023-11-19T10:32:42;25.88;;;4.20;;
83410;SDS011;73340;53.132;8.174;2023-11-19T10:35:08;28.63;;;5.07;;
83410;SDS011;73340;53.132;8.174;2023-11-19T10:37:33;35.83;;;5.35;;
83410;SDS011;73340;53.132;8.174;2023-11-19T10:40:00;35.00;;;4.82;;
83410;SDS011;73340;53.132;8.174;2023-11-19T10:42:25;22.70;;;3.60;;
83410;SDS011;73340;53.132;8.174;2023-11-19T10:44:50;33.20;;;4.60;;
83410;SDS011;73340;53.132;8.174;2023-11-19T10:47:16;23.10;;;4.13;;
83410;SDS011;73340;53.132;8.174;2023-11-19T10:49:44;25.65;;;4.10;;
83410;SDS011;73340;53.132;8.174;2023-11-19T10:52:10;16.85;;;3.78;;
83410;SDS011;73340;53.132;8.174;2023-11-19T10:54:36;24.85;;;5.43;;
83410;SDS011;73340;53.132;8.174;2023-11-19T10:57:02;30.60;;;4.68;;
83410;SDS011;73340;53.132;8.174;2023-11-19T10:59:28;26.02;;;4.85;;
83410;SDS011;73340;53.132;8.174;2023-11-19T11:01:54;24.50;;;4.10;;
83410;SDS011;73340;53.132;8.174;2023-11-19T11:04:24;27.05;;;3.97;;
83410;SDS011;73340;53.132;8.174;2023-11-19T11:06:54;27.23;;;4.35;;
83410;SDS011;73340;53.132;8.174;2023-11-19T11:09:19;24.85;;;4.50;;
83410;SDS011;73340;53.132;8.174;2023-11-19T11:11:46;18.48;;;4.10;;
83410;SDS011;73340;53.132;8.174;2023-11-19T11:14:12;33.38;;;5.70;;
83410;SDS011;73340;53.132;8.174;2023-11-19T11:16:37;27.92;;;4.28;;
83410;SDS011;73340;53.132;8.174;2023-11-19T11:19:05;20.67;;;4.03;;
83410;SDS011;73340;53.132;8.174;2023-11-19T11:21:30;20.50;;;3.70;;
83410;SDS011;73340;53.132;8.174;2023-11-19T11:28:56;26.43;;;4.50;;
83410;SDS011;73340;53.132;8.174;2023-11-19T11:34:15;27.65;;;6.57;;
83410;SDS011;73340;53.132;8.174;2023-11-19T11:36:53;24.88;;;4.18;;
83410;SDS011;73340;53.132;8.174;2023-11-19T11:39:23;22.95;;;5.07;;
83410;SDS011;73340;53.132;8.174;2023-11-19T11:42:18;23.55;;;4.00;;
83410;SDS011;73340;53.132;8.174;2023-11-19T11:47:19;21.15;;;4.95;;
83410;SDS011;73340;53.132;8.174;2023-11-19T11:49:44;32.47;;;6.60;;
83410;SDS011;73340;53.132;8.174;2023-11-19T11:52:09;22.25;;;5.57;;
83410;SDS011;73340;53.132;8.174;2023-11-19T11:54:39;26.52;;;4.88;;
83410;SDS011;73340;53.132;8.174;2023-11-19T11:57:10;21.83;;;4.03;;
83410;SDS011;73340;53.132;8.174;2023-11-19T12:02:10;24.75;;;4.00;;
83410;SDS011;73340;53.132;8.174;2023-11-19T12:04:36;27.73;;;4.40;;
83410;SDS011;73340;53.132;8.174;2023-11-19T12:07:05;21.50;;;4.53;;
83410;SDS011;73340;53.132;8.174;2023-11-19T12:09:31;27.67;;;5.10;;
83410;SDS011;73340;53.132;8.174;2023-11-19T12:19:58;18.20;;;3.15;;
83410;SDS011;73340;53.132;8.174;2023-11-19T12:22:24;21.30;;;3.63;;
83410;SDS011;73340;53.132;8.174;2023-11-19T12:24:49;14.20;;;2.85;;
83410;SDS011;73340;53.132;8.174;2023-11-19T12:27:16;17.02;;;2.95;;
83410;SDS011;73340;53.132;8.174;2023-11-19T12:29:42;18.27;;;2.80;;
83410;SDS011;73340;53.132;8.174;2023-11-19T12:32:10;14.32;;;2.80;;
83410;SDS011;73340;53.132;8.174;2023-11-19T12:34:36;13.60;;;2.47;;
83410;SDS011;73340;53.132;8.174;2023-11-19T12:37:04;16.87;;;2.73;;
83410;SDS011;73340;53.132;8.174;2023-11-19T12:39:30;14.60;;;2.75;;
83410;SDS011;73340;53.132;8.174;2023-11-19T12:41:55;12.15;;;2.45;;
83410;SDS011;73340;53.132;8.174;2023-11-19T12:44:21;13.90;;;2.17;;
83410;SDS011;73340;53.132;8.174;2023-11-19T12:46:46;9.48;;;1.83;;
83410;SDS011;73340;53.132;8.174;2023-11-19T12:49:11;9.40;;;1.90;;
83410;SDS011;73340;53.132;8.174;2023-11-19T12:51:37;10.53;;;1.80;;
83410;SDS011;73340;53.132;8.174;2023-11-19T12:54:02;9.47;;;2.27;;
83410;SDS011;73340;53.132;8.174;2023-11-19T12:56:27;8.33;;;2.20;;
83410;SDS011;73340;53.132;8.174;2023-11-19T12:58:52;12.57;;;2.57;;
83410;SDS011;73340;53.132;8.174;2023-11-19T13:01:18;6.50;;;1.80;;
83410;SDS011;73340;53.132;8.174;2023-11-19T13:03:46;10.32;;;2.08;;
83410;SDS011;73340;53.132;8.174;2023-11-19T13:06:14;10.80;;;1.90;;
83410;SDS011;73340;53.132;8.174;2023-11-19T13:11:13;17.85;;;2.20;;
83410;SDS011;73340;53.132;8.174;2023-11-19T13:16:19;10.43;;;2.17;;
83410;SDS011;73340;53.132;8.174;2023-11-19T13:18:44;14.00;;;1.90;;
83410;SDS011;73340;53.132;8.174;2023-11-19T13:21:09;10.68;;;2.65;;
83410;SDS011;73340;53.132;8.174;2023-11-19T13:23:35;23.97;;;2.20;;
83410;SDS011;73340;53.132;8.174;2023-11-19T13:26:00;12.63;;;2.43;;
83410;SDS011;73340;53.132;8.174;2023-11-19T13:28:25;11.93;;;2.00;;
83410;SDS011;73340;53.132;8.174;2023-11-19T13:30:51;15.93;;;3.47;;
83410;SDS011;73340;53.132;8.174;2023-11-19T13:33:16;15.35;;;2.80;;
83410;SDS011;73340;53.132;8.174;2023-11-19T13:35:42;13.47;;;2.27;;
83410;SDS011;73340;53.132;8.174;2023-11-19T13:38:07;16.77;;;2.77;;
83410;SDS011;73340;53.132;8.174;2023-11-19T13:40:33;12.48;;;2.75;;
83410;SDS011;73340;53.132;8.174;2023-11-19T13:42:59;17.60;;;3.30;;
83410;SDS011;73340;53.132;8.174;2023-11-19T13:45:24;15.17;;;4.00;;
83410;SDS011;73340;53.132;8.174;2023-11-19T13:47:49;21.95;;;3.60;;
83410;SDS011;73340;53.132;8.174;2023-11-19T13:50:15;19.27;;;3.60;;
83410;SDS011;73340;53.132;8.174;2023-11-19T13:52:42;21.23;;;4.25;;
83410;SDS011;73340;53.132;8.174;2023-11-19T13:55:08;17.33;;;3.75;;
83410;SDS011;73340;53.132;8.174;2023-11-19T13:57:34;17.08;;;3.83;;
83410;SDS011;73340;53.132;8.174;2023-11-19T14:00:00;16.77;;;3.67;;
83410;SDS011;73340;53.132;8.174;2023-11-19T14:02:28;15.52;;;4.68;;
83410;SDS011;73340;53.132;8.174;2023-11-19T14:04:53;17.13;;;3.23;;
83410;SDS011;73340;53.132;8.174;2023-11-19T14:07:18;18.70;;;3.47;;
83410;SDS011;73340;53.132;8.174;2023-11-19T14:09:43;17.37;;;3.60;;
83410;SDS011;73340;53.132;8.174;2023-11-19T14:12:08;23.07;;;3.23;;
83410;SDS011;73340;53.132;8.174;2023-11-19T14:14:34;17.55;;;3.20;;
83410;SDS011;73340;53.132;8.174;2023-11-19T14:16:59;13.93;;;2.60;;
83410;SDS011;73340;53.132;8.174;2023-11-19T14:19:26;13.48;;;3.15;;
83410;SDS011;73340;53.132;8.174;2023-11-19T14:21:52;13.30;;;2.95;;
83410;SDS011;73340;53.132;8.174;2023-11-19T14:24:17;11.43;;;2.50;;
83410;SDS011;73340;53.132;8.174;2023-11-19T14:26:42;14.37;;;2.30;;
83410;SDS011;73340;53.132;8.174;2023-11-19T14:29:07;20.67;;;2.97;;
83410;SDS011;73340;53.132;8.174;2023-11-19T14:31:32;13.50;;;2.63;;
83410;SDS011;73340;53.132;8.174;2023-11-19T14:33:58;14.07;;;2.27;;
83410;SDS011;73340;53.132;8.174;2023-11-19T14:36:23;11.87;;;2.20;;
83410;SDS011;73340;53.132;8.174;2023-11-19T14:38:48;12.83;;;2.43;;
83410;SDS011;73340;53.132;8.174;2023-11-19T14:41:13;13.80;;;2.57;;
83410;SDS011;73340;53.132;8.174;2023-11-19T14:43:39;12.77;;;2.27;;
83410;SDS011;73340;53.132;8.174;2023-11-19T14:46:04;12.63;;;2.38;;
83410;SDS011;73340;53.132;8.174;2023-11-19T14:48:29;22.55;;;3.10;;